sensor_id;sensor_type;location;lat;lon;timestamp;temperature;humidity
20182;DHT22;10250;50.756;6.172;2023-03-20T00:00:57;11.00;1.00
20182;DHT22;10250;50.756;6.172;2023-03-20T00:02:57;11.10;1.00
20182;DHT22;10250;50.756;6.172;2023-03-20T00:04:58;11.00;1.00
20182;DHT22;10250;50.756;6.172;2023-03-20T00:06:58;11.00;1.00
20182;DHT22;10250;50.756;6.172;2023-03-20T00:08:59;10.90;1.00
20182;DHT22;10250;50.756;6.172;2023-03-20T00:11:01;11.00;1.00
20182;DHT22;10250;50.756;6.172;2023-03-20T00:13:03;10.90;1.00
20182;DHT22;10250;50.756;6.172;2023-03-20T00:15:07;10.90;1.00
20182;DHT22;10250;50.756;6.172;2023-03-20T00:17:18;10.70;1.00
20182;DHT22;10250;50.756;6.172;2023-03-20T00:19:20;10.80;1.00
20182;DHT22;10250;50.756;6.172;2023-03-20T00:21:22;10.90;1.00
20182;DHT22;10250;50.756;6.172;2023-03-20T00:23:23;10.90;1.00
20182;DHT22;10250;50.756;6.172;2023-03-20T00:25:25;10.80;1.00
20182;DHT22;10250;50.756;6.172;2023-03-20T00:27:26;11.00;1.00
20182;DHT22;10250;50.756;6.172;2023-03-20T00:29:28;10.80;1.00
20182;DHT22;10250;50.756;6.172;2023-03-20T00:31:35;10.80;1.00
20182;DHT22;10250;50.756;6.172;2023-03-20T00:33:36;10.80;1.00
20182;DHT22;10250;50.756;6.172;2023-03-20T00:35:37;10.80;1.00
20182;DHT22;10250;50.756;6.172;2023-03-20T00:37:38;10.90;1.00
20182;DHT22;10250;50.756;6.172;2023-03-20T00:39:39;10.90;1.00
20182;DHT22;10250;50.756;6.172;2023-03-20T00:41:48;10.90;1.00
20182;DHT22;10250;50.756;6.172;2023-03-20T00:43:52;10.80;1.00
20182;DHT22;10250;50.756;6.172;2023-03-20T00:45:54;10.80;1.00
20182;DHT22;10250;50.756;6.172;2023-03-20T00:47:55;10.80;1.00
20182;DHT22;10250;50.756;6.172;2023-03-20T00:49:59;10.80;1.00
20182;DHT22;10250;50.756;6.172;2023-03-20T00:52:02;10.80;1.00
20182;DHT22;10250;50.756;6.172;2023-03-20T00:54:13;10.70;1.00
20182;DHT22;10250;50.756;6.172;2023-03-20T00:58:24;10.90;1.00
20182;DHT22;10250;50.756;6.172;2023-03-20T01:00:40;10.80;1.00
20182;DHT22;10250;50.756;6.172;2023-03-20T01:02:41;10.80;1.00
20182;DHT22;10250;50.756;6.172;2023-03-20T01:04:42;10.80;1.00
20182;DHT22;10250;50.756;6.172;2023-03-20T01:06:43;10.80;1.00
20182;DHT22;10250;50.756;6.172;2023-03-20T01:08:44;10.90;1.00
20182;DHT22;10250;50.756;6.172;2023-03-20T01:10:47;10.70;1.00
20182;DHT22;10250;50.756;6.172;2023-03-20T01:12:48;10.80;1.00
20182;DHT22;10250;50.756;6.172;2023-03-20T01:14:54;10.80;1.00
20182;DHT22;10250;50.756;6.172;2023-03-20T01:16:55;10.70;1.00
20182;DHT22;10250;50.756;6.172;2023-03-20T01:18:56;10.80;1.00
20182;DHT22;10250;50.756;6.172;2023-03-20T01:20:57;10.70;1.00
20182;DHT22;10250;50.756;6.172;2023-03-20T01:22:57;10.70;1.00
20182;DHT22;10250;50.756;6.172;2023-03-20T01:24:58;10.80;1.00
20182;DHT22;10250;50.756;6.172;2023-03-20T01:26:58;10.70;1.00
20182;DHT22;10250;50.756;6.172;2023-03-20T01:29:04;10.60;1.00
20182;DHT22;10250;50.756;6.172;2023-03-20T01:31:12;10.70;1.00
20182;DHT22;10250;50.756;6.172;2023-03-20T01:33:18;10.70;1.00
20182;DHT22;10250;50.756;6.172;2023-03-20T01:35:21;10.80;1.00
20182;DHT22;10250;50.756;6.172;2023-03-20T01:37:25;10.70;1.00
20182;DHT22;10250;50.756;6.172;2023-03-20T01:39:31;10.70;1.00
20182;DHT22;10250;50.756;6.172;2023-03-20T01:41:32;10.70;1.00
20182;DHT22;10250;50.756;6.172;2023-03-20T01:43:33;10.80;1.00
20182;DHT22;10250;50.756;6.172;2023-03-20T01:45:35;10.70;1.00
20182;DHT22;10250;50.756;6.172;2023-03-20T01:47:36;10.60;1.00
20182;DHT22;10250;50.756;6.172;2023-03-20T01:52:15;10.60;1.00
20182;DHT22;10250;50.756;6.172;2023-03-20T01:54:36;10.50;1.00
20182;DHT22;10250;50.756;6.172;2023-03-20T01:56:45;10.40;1.00
20182;DHT22;10250;50.756;6.172;2023-03-20T01:58:54;10.60;1.00
20182;DHT22;10250;50.756;6.172;2023-03-20T02:00:56;10.50;1.00
20182;DHT22;10250;50.756;6.172;2023-03-20T02:02:57;10.60;1.00
20182;DHT22;10250;50.756;6.172;2023-03-20T02:05:04;10.50;1.00
20182;DHT22;10250;50.756;6.172;2023-03-20T02:07:06;10.40;1.00
20182;DHT22;10250;50.756;6.172;2023-03-20T02:09:07;10.40;1.00
20182;DHT22;10250;50.756;6.172;2023-03-20T02:11:09;10.50;1.00
20182;DHT22;10250;50.756;6.172;2023-03-20T02:13:11;10.30;1.00
20182;DHT22;10250;50.756;6.172;2023-03-20T02:15:13;10.40;1.00
20182;DHT22;10250;50.756;6.172;2023-03-20T02:17:15;10.40;1.00
20182;DHT22;10250;50.756;6.172;2023-03-20T02:19:26;10.30;1.00
20182;DHT22;10250;50.756;6.172;2023-03-20T02:43:21;10.30;1.00
20182;DHT22;10250;50.756;6.172;2023-03-20T02:47:38;10.20;1.00
20182;DHT22;10250;50.756;6.172;2023-03-20T02:52:17;10.10;1.00
20182;DHT22;10250;50.756;6.172;2023-03-20T02:57:00;10.10;1.00
20182;DHT22;10250;50.756;6.172;2023-03-20T03:01:30;10.10;1.00
20182;DHT22;10250;50.756;6.172;2023-03-20T03:03:58;10.10;1.00
20182;DHT22;10250;50.756;6.172;2023-03-20T03:06:20;9.90;1.00
20182;DHT22;10250;50.756;6.172;2023-03-20T03:08:24;10.00;1.00
20182;DHT22;10250;50.756;6.172;2023-03-20T03:10:44;10.10;1.00
20182;DHT22;10250;50.756;6.172;2023-03-20T03:12:48;9.90;1.00
20182;DHT22;10250;50.756;6.172;2023-03-20T03:14:53;9.90;1.00
20182;DHT22;10250;50.756;6.172;2023-03-20T03:16:56;9.90;1.00
20182;DHT22;10250;50.756;6.172;2023-03-20T03:19:08;9.90;1.00
20182;DHT22;10250;50.756;6.172;2023-03-20T03:21:11;9.80;1.00
20182;DHT22;10250;50.756;6.172;2023-03-20T03:23:31;9.90;1.00
20182;DHT22;10250;50.756;6.172;2023-03-20T03:25:36;9.90;1.00
20182;DHT22;10250;50.756;6.172;2023-03-20T03:27:40;9.90;1.00
20182;DHT22;10250;50.756;6.172;2023-03-20T03:29:42;9.80;1.00
20182;DHT22;10250;50.756;6.172;2023-03-20T03:31:45;9.80;1.00
20182;DHT22;10250;50.756;6.172;2023-03-20T03:33:50;9.80;1.00
20182;DHT22;10250;50.756;6.172;2023-03-20T03:35:54;9.70;1.00
20182;DHT22;10250;50.756;6.172;2023-03-20T03:40:12;9.80;1.00
20182;DHT22;10250;50.756;6.172;2023-03-20T03:44:27;9.50;1.00
20182;DHT22;10250;50.756;6.172;2023-03-20T03:46:40;9.80;1.00
20182;DHT22;10250;50.756;6.172;2023-03-20T03:48:47;9.80;1.00
20182;DHT22;10250;50.756;6.172;2023-03-20T03:50:59;9.80;1.00
20182;DHT22;10250;50.756;6.172;2023-03-20T03:53:05;9.90;1.00
20182;DHT22;10250;50.756;6.172;2023-03-20T03:55:20;9.90;1.00
20182;DHT22;10250;50.756;6.172;2023-03-20T03:57:28;9.80;1.00
20182;DHT22;10250;50.756;6.172;2023-03-20T03:59:37;9.90;1.00
20182;DHT22;10250;50.756;6.172;2023-03-20T04:01:39;9.90;1.00
20182;DHT22;10250;50.756;6.172;2023-03-20T04:03:49;9.90;1.00
20182;DHT22;10250;50.756;6.172;2023-03-20T04:05:52;9.90;1.00
20182;DHT22;10250;50.756;6.172;2023-03-20T04:07:55;9.90;1.00
20182;DHT22;10250;50.756;6.172;2023-03-20T04:09:57;9.90;1.00
20182;DHT22;10250;50.756;6.172;2023-03-20T04:11:58;9.80;53.00
20182;DHT22;10250;50.756;6.172;2023-03-20T04:13:59;9.70;40.20
20182;DHT22;10250;50.756;6.172;2023-03-20T04:16:00;9.70;67.30
20182;DHT22;10250;50.756;6.172;2023-03-20T04:18:00;9.70;99.90
20182;DHT22;10250;50.756;6.172;2023-03-20T04:20:02;9.70;99.90
20182;DHT22;10250;50.756;6.172;2023-03-20T04:22:03;9.70;99.90
20182;DHT22;10250;50.756;6.172;2023-03-20T04:24:03;9.70;83.80
20182;DHT22;10250;50.756;6.172;2023-03-20T04:26:04;9.50;99.90
20182;DHT22;10250;50.756;6.172;2023-03-20T04:28:05;9.60;99.90
20182;DHT22;10250;50.756;6.172;2023-03-20T04:30:07;9.60;99.90
20182;DHT22;10250;50.756;6.172;2023-03-20T04:32:08;9.50;99.90
20182;DHT22;10250;50.756;6.172;2023-03-20T04:34:08;9.60;99.90
20182;DHT22;10250;50.756;6.172;2023-03-20T04:36:09;9.70;99.90
20182;DHT22;10250;50.756;6.172;2023-03-20T04:38:10;9.60;99.90
20182;DHT22;10250;50.756;6.172;2023-03-20T04:40:11;9.60;99.90
20182;DHT22;10250;50.756;6.172;2023-03-20T04:42:12;9.70;99.90
20182;DHT22;10250;50.756;6.172;2023-03-20T04:44:13;9.70;99.90
20182;DHT22;10250;50.756;6.172;2023-03-20T04:46:13;9.70;99.90
20182;DHT22;10250;50.756;6.172;2023-03-20T04:48:14;9.60;1.00
20182;DHT22;10250;50.756;6.172;2023-03-20T04:50:15;9.50;1.00
20182;DHT22;10250;50.756;6.172;2023-03-20T04:58:18;9.60;1.00
20182;DHT22;10250;50.756;6.172;2023-03-20T05:00:19;9.70;25.30
20182;DHT22;10250;50.756;6.172;2023-03-20T05:02:20;9.70;1.00
20182;DHT22;10250;50.756;6.172;2023-03-20T05:04:21;9.70;1.00
20182;DHT22;10250;50.756;6.172;2023-03-20T05:06:21;9.70;1.00
20182;DHT22;10250;50.756;6.172;2023-03-20T05:08:22;9.60;23.40
20182;DHT22;10250;50.756;6.172;2023-03-20T05:10:22;9.60;1.00
20182;DHT22;10250;50.756;6.172;2023-03-20T05:12:23;9.70;1.00
20182;DHT22;10250;50.756;6.172;2023-03-20T05:14:24;9.70;1.00
20182;DHT22;10250;50.756;6.172;2023-03-20T05:16:24;9.70;1.00
20182;DHT22;10250;50.756;6.172;2023-03-20T05:18:25;9.60;1.00
20182;DHT22;10250;50.756;6.172;2023-03-20T05:20:26;9.70;1.00
20182;DHT22;10250;50.756;6.172;2023-03-20T05:22:27;9.60;1.00
20182;DHT22;10250;50.756;6.172;2023-03-20T05:24:27;9.60;1.00
20182;DHT22;10250;50.756;6.172;2023-03-20T05:26:28;9.70;1.00
20182;DHT22;10250;50.756;6.172;2023-03-20T05:28:29;9.70;1.00
20182;DHT22;10250;50.756;6.172;2023-03-20T05:30:29;9.70;1.00
20182;DHT22;10250;50.756;6.172;2023-03-20T05:32:30;9.70;1.00
20182;DHT22;10250;50.756;6.172;2023-03-20T05:34:30;9.70;1.00
20182;DHT22;10250;50.756;6.172;2023-03-20T05:36:31;9.70;1.00
20182;DHT22;10250;50.756;6.172;2023-03-20T05:38:32;9.60;1.00
20182;DHT22;10250;50.756;6.172;2023-03-20T05:40:32;9.70;1.00
20182;DHT22;10250;50.756;6.172;2023-03-20T05:42:33;9.60;1.00
20182;DHT22;10250;50.756;6.172;2023-03-20T05:44:33;9.60;1.00
20182;DHT22;10250;50.756;6.172;2023-03-20T05:46:34;9.60;1.00
20182;DHT22;10250;50.756;6.172;2023-03-20T05:48:35;9.60;1.00
20182;DHT22;10250;50.756;6.172;2023-03-20T05:50:36;9.50;1.00
20182;DHT22;10250;50.756;6.172;2023-03-20T05:52:36;9.40;1.00
20182;DHT22;10250;50.756;6.172;2023-03-20T05:54:37;9.30;1.00
20182;DHT22;10250;50.756;6.172;2023-03-20T05:56:37;9.50;38.50
20182;DHT22;10250;50.756;6.172;2023-03-20T05:58:38;9.50;1.00
20182;DHT22;10250;50.756;6.172;2023-03-20T06:00:39;9.40;1.00
20182;DHT22;10250;50.756;6.172;2023-03-20T06:02:39;9.60;1.00
20182;DHT22;10250;50.756;6.172;2023-03-20T06:04:40;9.50;1.00
20182;DHT22;10250;50.756;6.172;2023-03-20T06:06:40;9.50;1.00
20182;DHT22;10250;50.756;6.172;2023-03-20T06:08:41;9.50;1.00
20182;DHT22;10250;50.756;6.172;2023-03-20T06:10:42;9.50;1.00
20182;DHT22;10250;50.756;6.172;2023-03-20T06:12:43;9.50;1.00
20182;DHT22;10250;50.756;6.172;2023-03-20T06:14:43;9.50;1.00
20182;DHT22;10250;50.756;6.172;2023-03-20T06:16:44;9.40;1.00
20182;DHT22;10250;50.756;6.172;2023-03-20T06:18:44;9.40;1.00
20182;DHT22;10250;50.756;6.172;2023-03-20T06:20:45;9.50;6.30
20182;DHT22;10250;50.756;6.172;2023-03-20T06:22:46;9.50;1.00
20182;DHT22;10250;50.756;6.172;2023-03-20T06:24:46;9.50;1.00
20182;DHT22;10250;50.756;6.172;2023-03-20T06:26:47;9.50;1.00
20182;DHT22;10250;50.756;6.172;2023-03-20T06:28:47;9.50;1.00
20182;DHT22;10250;50.756;6.172;2023-03-20T06:30:51;9.60;1.00
20182;DHT22;10250;50.756;6.172;2023-03-20T06:32:52;9.70;1.00
20182;DHT22;10250;50.756;6.172;2023-03-20T06:34:53;9.60;1.00
20182;DHT22;10250;50.756;6.172;2023-03-20T06:36:53;9.50;1.00
20182;DHT22;10250;50.756;6.172;2023-03-20T06:38:55;9.50;1.00
20182;DHT22;10250;50.756;6.172;2023-03-20T06:40:56;9.60;1.00
20182;DHT22;10250;50.756;6.172;2023-03-20T06:42:56;9.60;1.00
20182;DHT22;10250;50.756;6.172;2023-03-20T06:44:57;9.40;1.00
20182;DHT22;10250;50.756;6.172;2023-03-20T06:46:58;9.50;1.00
20182;DHT22;10250;50.756;6.172;2023-03-20T06:48:58;9.40;1.00
20182;DHT22;10250;50.756;6.172;2023-03-20T06:50:59;9.40;1.00
20182;DHT22;10250;50.756;6.172;2023-03-20T06:53:00;9.60;1.00
20182;DHT22;10250;50.756;6.172;2023-03-20T06:55:01;9.50;1.00
20182;DHT22;10250;50.756;6.172;2023-03-20T06:57:01;9.50;1.00
20182;DHT22;10250;50.756;6.172;2023-03-20T06:59:02;9.60;1.00
20182;DHT22;10250;50.756;6.172;2023-03-20T07:01:08;9.50;1.00
20182;DHT22;10250;50.756;6.172;2023-03-20T07:03:09;9.50;1.00
20182;DHT22;10250;50.756;6.172;2023-03-20T07:05:11;9.60;1.00
20182;DHT22;10250;50.756;6.172;2023-03-20T07:07:11;9.60;1.00
20182;DHT22;10250;50.756;6.172;2023-03-20T07:09:12;9.60;1.00
20182;DHT22;10250;50.756;6.172;2023-03-20T07:11:13;9.50;1.00
20182;DHT22;10250;50.756;6.172;2023-03-20T07:13:14;9.60;1.00
20182;DHT22;10250;50.756;6.172;2023-03-20T07:15:15;9.60;1.00
20182;DHT22;10250;50.756;6.172;2023-03-20T07:17:16;9.70;1.00
20182;DHT22;10250;50.756;6.172;2023-03-20T07:19:17;9.40;1.00
20182;DHT22;10250;50.756;6.172;2023-03-20T07:21:20;9.60;1.00
20182;DHT22;10250;50.756;6.172;2023-03-20T07:23:22;9.70;1.00
20182;DHT22;10250;50.756;6.172;2023-03-20T07:25:22;9.50;1.00
20182;DHT22;10250;50.756;6.172;2023-03-20T07:27:23;9.60;1.00
20182;DHT22;10250;50.756;6.172;2023-03-20T07:29:23;9.50;1.00
20182;DHT22;10250;50.756;6.172;2023-03-20T07:31:25;9.40;1.00
20182;DHT22;10250;50.756;6.172;2023-03-20T07:33:26;9.50;1.00
20182;DHT22;10250;50.756;6.172;2023-03-20T07:35:27;9.40;1.00
20182;DHT22;10250;50.756;6.172;2023-03-20T07:37:28;9.60;1.00
20182;DHT22;10250;50.756;6.172;2023-03-20T07:39:28;9.50;1.00
20182;DHT22;10250;50.756;6.172;2023-03-20T07:41:29;9.40;1.00
20182;DHT22;10250;50.756;6.172;2023-03-20T07:43:31;9.60;1.00
20182;DHT22;10250;50.756;6.172;2023-03-20T07:45:31;9.50;1.00
20182;DHT22;10250;50.756;6.172;2023-03-20T07:47:32;9.60;1.00
20182;DHT22;10250;50.756;6.172;2023-03-20T07:49:33;9.70;1.00
20182;DHT22;10250;50.756;6.172;2023-03-20T07:51:34;9.50;1.00
20182;DHT22;10250;50.756;6.172;2023-03-20T07:53:36;9.60;1.00
20182;DHT22;10250;50.756;6.172;2023-03-20T07:55:36;9.60;1.00
20182;DHT22;10250;50.756;6.172;2023-03-20T07:57:37;9.60;1.00
20182;DHT22;10250;50.756;6.172;2023-03-20T07:59:37;9.70;1.00
20182;DHT22;10250;50.756;6.172;2023-03-20T08:01:38;9.80;1.00
20182;DHT22;10250;50.756;6.172;2023-03-20T08:03:38;9.70;1.00
20182;DHT22;10250;50.756;6.172;2023-03-20T08:05:39;9.60;1.00
20182;DHT22;10250;50.756;6.172;2023-03-20T08:07:40;9.60;1.00
20182;DHT22;10250;50.756;6.172;2023-03-20T08:09:40;9.70;1.00
20182;DHT22;10250;50.756;6.172;2023-03-20T08:11:41;9.80;1.00
20182;DHT22;10250;50.756;6.172;2023-03-20T08:13:42;9.60;1.00
20182;DHT22;10250;50.756;6.172;2023-03-20T08:15:42;9.80;1.00
20182;DHT22;10250;50.756;6.172;2023-03-20T08:17:44;9.80;1.00
20182;DHT22;10250;50.756;6.172;2023-03-20T08:19:44;9.80;1.00
20182;DHT22;10250;50.756;6.172;2023-03-20T08:21:45;9.90;1.00
20182;DHT22;10250;50.756;6.172;2023-03-20T08:23:46;10.00;1.00
20182;DHT22;10250;50.756;6.172;2023-03-20T08:25:51;10.00;1.00
20182;DHT22;10250;50.756;6.172;2023-03-20T08:27:53;9.70;1.00
20182;DHT22;10250;50.756;6.172;2023-03-20T08:29:54;9.80;1.00
20182;DHT22;10250;50.756;6.172;2023-03-20T08:31:54;9.90;1.00
20182;DHT22;10250;50.756;6.172;2023-03-20T08:33:55;10.00;1.00
20182;DHT22;10250;50.756;6.172;2023-03-20T08:35:57;9.80;1.00
20182;DHT22;10250;50.756;6.172;2023-03-20T08:37:58;9.80;1.00
20182;DHT22;10250;50.756;6.172;2023-03-20T08:39:58;9.90;1.00
20182;DHT22;10250;50.756;6.172;2023-03-20T08:41:59;9.80;1.00
20182;DHT22;10250;50.756;6.172;2023-03-20T08:44:00;10.00;1.00
20182;DHT22;10250;50.756;6.172;2023-03-20T08:46:01;9.80;1.00
20182;DHT22;10250;50.756;6.172;2023-03-20T08:48:01;9.70;1.00
20182;DHT22;10250;50.756;6.172;2023-03-20T08:50:03;9.90;1.00
20182;DHT22;10250;50.756;6.172;2023-03-20T08:52:04;9.70;1.00
20182;DHT22;10250;50.756;6.172;2023-03-20T08:54:05;9.90;1.00
20182;DHT22;10250;50.756;6.172;2023-03-20T09:02:10;10.10;1.00
20182;DHT22;10250;50.756;6.172;2023-03-20T09:04:12;10.00;1.00
20182;DHT22;10250;50.756;6.172;2023-03-20T09:06:13;9.90;1.00
20182;DHT22;10250;50.756;6.172;2023-03-20T09:08:14;9.90;1.00
20182;DHT22;10250;50.756;6.172;2023-03-20T09:10:15;10.00;1.00
20182;DHT22;10250;50.756;6.172;2023-03-20T09:12:16;10.00;1.00
20182;DHT22;10250;50.756;6.172;2023-03-20T09:14:16;10.00;1.00
20182;DHT22;10250;50.756;6.172;2023-03-20T09:16:17;10.10;1.00
20182;DHT22;10250;50.756;6.172;2023-03-20T09:18:19;10.20;1.00
20182;DHT22;10250;50.756;6.172;2023-03-20T09:20:20;10.00;1.00
20182;DHT22;10250;50.756;6.172;2023-03-20T09:22:21;10.10;1.00
20182;DHT22;10250;50.756;6.172;2023-03-20T09:24:21;10.00;1.00
20182;DHT22;10250;50.756;6.172;2023-03-20T09:26:22;10.00;1.00
20182;DHT22;10250;50.756;6.172;2023-03-20T09:28:22;10.00;1.00
20182;DHT22;10250;50.756;6.172;2023-03-20T09:30:23;10.10;1.00
20182;DHT22;10250;50.756;6.172;2023-03-20T09:32:25;10.20;1.00
20182;DHT22;10250;50.756;6.172;2023-03-20T09:34:26;10.10;1.00
20182;DHT22;10250;50.756;6.172;2023-03-20T09:36:26;10.10;1.00
20182;DHT22;10250;50.756;6.172;2023-03-20T09:38:27;10.00;1.00
20182;DHT22;10250;50.756;6.172;2023-03-20T09:40:35;9.90;1.00
20182;DHT22;10250;50.756;6.172;2023-03-20T09:42:46;9.70;1.00
20182;DHT22;10250;50.756;6.172;2023-03-20T09:50:04;10.10;1.00
20182;DHT22;10250;50.756;6.172;2023-03-20T09:52:31;9.80;1.00
20182;DHT22;10250;50.756;6.172;2023-03-20T09:54:47;9.90;1.00
20182;DHT22;10250;50.756;6.172;2023-03-20T09:59:13;9.90;1.00
20182;DHT22;10250;50.756;6.172;2023-03-20T10:01:14;9.70;1.00
20182;DHT22;10250;50.756;6.172;2023-03-20T10:03:20;9.70;1.00
20182;DHT22;10250;50.756;6.172;2023-03-20T10:07:37;9.80;1.00
20182;DHT22;10250;50.756;6.172;2023-03-20T10:09:37;9.90;1.00
20182;DHT22;10250;50.756;6.172;2023-03-20T10:18:34;9.90;1.00
20182;DHT22;10250;50.756;6.172;2023-03-20T10:20:58;10.10;1.00
20182;DHT22;10250;50.756;6.172;2023-03-20T10:23:15;9.90;1.00
20182;DHT22;10250;50.756;6.172;2023-03-20T10:25:27;9.70;1.00
20182;DHT22;10250;50.756;6.172;2023-03-20T10:27:33;9.70;1.00
20182;DHT22;10250;50.756;6.172;2023-03-20T10:32:25;9.90;1.00
20182;DHT22;10250;50.756;6.172;2023-03-20T10:34:36;9.80;1.00
20182;DHT22;10250;50.756;6.172;2023-03-20T10:39:05;9.50;1.00
20182;DHT22;10250;50.756;6.172;2023-03-20T10:41:13;9.70;1.00
20182;DHT22;10250;50.756;6.172;2023-03-20T10:43:21;9.80;1.00
20182;DHT22;10250;50.756;6.172;2023-03-20T10:45:34;9.80;1.00
20182;DHT22;10250;50.756;6.172;2023-03-20T10:47:38;9.80;1.00
20182;DHT22;10250;50.756;6.172;2023-03-20T10:49:57;9.90;1.00
20182;DHT22;10250;50.756;6.172;2023-03-20T10:52:03;9.90;1.00
20182;DHT22;10250;50.756;6.172;2023-03-20T10:54:17;9.70;1.00
20182;DHT22;10250;50.756;6.172;2023-03-20T10:56:41;9.70;1.00
20182;DHT22;10250;50.756;6.172;2023-03-20T10:58:46;9.60;1.00
20182;DHT22;10250;50.756;6.172;2023-03-20T11:00:48;9.80;1.00
20182;DHT22;10250;50.756;6.172;2023-03-20T11:02:49;9.90;1.00
20182;DHT22;10250;50.756;6.172;2023-03-20T11:04:50;10.00;1.00
20182;DHT22;10250;50.756;6.172;2023-03-20T11:08:52;9.70;1.00
20182;DHT22;10250;50.756;6.172;2023-03-20T11:11:00;9.90;1.00
20182;DHT22;10250;50.756;6.172;2023-03-20T11:13:32;9.90;1.00
20182;DHT22;10250;50.756;6.172;2023-03-20T11:15:33;9.80;1.00
20182;DHT22;10250;50.756;6.172;2023-03-20T11:17:34;9.80;1.00
20182;DHT22;10250;50.756;6.172;2023-03-20T11:19:36;10.00;1.00
20182;DHT22;10250;50.756;6.172;2023-03-20T11:21:55;10.00;1.00
20182;DHT22;10250;50.756;6.172;2023-03-20T11:23:56;10.10;1.00
20182;DHT22;10250;50.756;6.172;2023-03-20T11:26:26;10.10;1.00
20182;DHT22;10250;50.756;6.172;2023-03-20T11:30:32;10.10;1.00
20182;DHT22;10250;50.756;6.172;2023-03-20T11:32:44;9.90;1.00
20182;DHT22;10250;50.756;6.172;2023-03-20T11:34:45;9.90;1.00
20182;DHT22;10250;50.756;6.172;2023-03-20T11:36:58;10.00;1.00
20182;DHT22;10250;50.756;6.172;2023-03-20T11:39:12;10.20;1.00
20182;DHT22;10250;50.756;6.172;2023-03-20T11:41:24;10.20;1.00
20182;DHT22;10250;50.756;6.172;2023-03-20T11:43:26;10.20;1.00
20182;DHT22;10250;50.756;6.172;2023-03-20T11:45:36;10.30;1.00
20182;DHT22;10250;50.756;6.172;2023-03-20T11:47:37;10.30;1.00
20182;DHT22;10250;50.756;6.172;2023-03-20T11:49:47;10.20;1.00
20182;DHT22;10250;50.756;6.172;2023-03-20T11:51:50;10.30;1.00
20182;DHT22;10250;50.756;6.172;2023-03-20T11:53:55;10.20;1.00
20182;DHT22;10250;50.756;6.172;2023-03-20T11:56:23;10.10;1.00
20182;DHT22;10250;50.756;6.172;2023-03-20T11:58:24;10.10;1.00
20182;DHT22;10250;50.756;6.172;2023-03-20T12:00:34;10.20;1.00
20182;DHT22;10250;50.756;6.172;2023-03-20T12:02:38;10.20;1.00
20182;DHT22;10250;50.756;6.172;2023-03-20T12:04:39;10.10;1.00
20182;DHT22;10250;50.756;6.172;2023-03-20T12:07:05;10.20;1.00
20182;DHT22;10250;50.756;6.172;2023-03-20T12:11:57;10.20;1.00
20182;DHT22;10250;50.756;6.172;2023-03-20T12:13:59;10.20;1.00
20182;DHT22;10250;50.756;6.172;2023-03-20T12:16:10;10.30;1.00
20182;DHT22;10250;50.756;6.172;2023-03-20T12:18:29;10.40;1.00
20182;DHT22;10250;50.756;6.172;2023-03-20T12:27:34;10.50;1.00
20182;DHT22;10250;50.756;6.172;2023-03-20T12:29:45;10.80;1.00
20182;DHT22;10250;50.756;6.172;2023-03-20T12:31:51;10.80;1.00
20182;DHT22;10250;50.756;6.172;2023-03-20T12:34:13;10.70;1.00
20182;DHT22;10250;50.756;6.172;2023-03-20T12:36:34;10.60;1.00
20182;DHT22;10250;50.756;6.172;2023-03-20T12:38:35;10.80;1.00
20182;DHT22;10250;50.756;6.172;2023-03-20T12:40:42;10.50;1.00
20182;DHT22;10250;50.756;6.172;2023-03-20T12:44:56;10.30;1.00
20182;DHT22;10250;50.756;6.172;2023-03-20T12:47:14;10.40;1.00
20182;DHT22;10250;50.756;6.172;2023-03-20T12:54:02;10.70;1.00
20182;DHT22;10250;50.756;6.172;2023-03-20T12:58:51;10.60;1.00
20182;DHT22;10250;50.756;6.172;2023-03-20T13:12:24;11.10;1.00
20182;DHT22;10250;50.756;6.172;2023-03-20T13:14:41;11.00;1.00
20182;DHT22;10250;50.756;6.172;2023-03-20T13:16:56;11.20;1.00
20182;DHT22;10250;50.756;6.172;2023-03-20T13:19:06;11.00;1.00
20182;DHT22;10250;50.756;6.172;2023-03-20T13:21:17;11.00;1.00
20182;DHT22;10250;50.756;6.172;2023-03-20T13:25:51;10.80;1.00
20182;DHT22;10250;50.756;6.172;2023-03-20T13:28:08;10.80;1.00
20182;DHT22;10250;50.756;6.172;2023-03-20T13:30:36;10.70;1.00
20182;DHT22;10250;50.756;6.172;2023-03-20T13:37:26;11.00;1.00
20182;DHT22;10250;50.756;6.172;2023-03-20T13:40:13;10.90;1.00
20182;DHT22;10250;50.756;6.172;2023-03-20T13:42:20;11.00;1.00
20182;DHT22;10250;50.756;6.172;2023-03-20T13:44:24;11.00;1.00
20182;DHT22;10250;50.756;6.172;2023-03-20T13:46:34;10.90;1.00
20182;DHT22;10250;50.756;6.172;2023-03-20T13:48:40;11.00;1.00
20182;DHT22;10250;50.756;6.172;2023-03-20T13:52:51;10.90;1.00
20182;DHT22;10250;50.756;6.172;2023-03-20T13:55:06;10.90;1.00
20182;DHT22;10250;50.756;6.172;2023-03-20T14:04:36;11.10;1.00
20182;DHT22;10250;50.756;6.172;2023-03-20T14:06:54;10.90;1.00
20182;DHT22;10250;50.756;6.172;2023-03-20T14:08:55;11.00;1.00
20182;DHT22;10250;50.756;6.172;2023-03-20T14:13:21;11.10;1.00
20182;DHT22;10250;50.756;6.172;2023-03-20T14:15:26;11.10;1.00
20182;DHT22;10250;50.756;6.172;2023-03-20T14:17:28;11.20;1.00
20182;DHT22;10250;50.756;6.172;2023-03-20T14:19:30;11.00;1.00
20182;DHT22;10250;50.756;6.172;2023-03-20T14:21:30;11.00;1.00
20182;DHT22;10250;50.756;6.172;2023-03-20T14:23:35;11.00;1.00
20182;DHT22;10250;50.756;6.172;2023-03-20T14:25:40;11.10;1.00
20182;DHT22;10250;50.756;6.172;2023-03-20T14:28:42;11.10;1.00
20182;DHT22;10250;50.756;6.172;2023-03-20T14:32:34;11.00;1.00
20182;DHT22;10250;50.756;6.172;2023-03-20T14:34:58;11.10;1.00
20182;DHT22;10250;50.756;6.172;2023-03-20T14:37:01;11.00;1.00
20182;DHT22;10250;50.756;6.172;2023-03-20T14:45:42;11.00;1.00
20182;DHT22;10250;50.756;6.172;2023-03-20T14:50:16;10.90;1.00
20182;DHT22;10250;50.756;6.172;2023-03-20T14:57:29;11.10;1.00
20182;DHT22;10250;50.756;6.172;2023-03-20T14:59:31;11.20;1.00
20182;DHT22;10250;50.756;6.172;2023-03-20T15:03:39;11.00;1.00
20182;DHT22;10250;50.756;6.172;2023-03-20T15:05:41;10.90;1.00
20182;DHT22;10250;50.756;6.172;2023-03-20T15:07:42;10.90;1.00
20182;DHT22;10250;50.756;6.172;2023-03-20T15:09:46;10.90;1.00
20182;DHT22;10250;50.756;6.172;2023-03-20T15:11:48;10.90;1.00
20182;DHT22;10250;50.756;6.172;2023-03-20T15:13:51;11.00;1.00
20182;DHT22;10250;50.756;6.172;2023-03-20T15:15:55;11.10;1.00
20182;DHT22;10250;50.756;6.172;2023-03-20T15:18:11;11.00;1.00
20182;DHT22;10250;50.756;6.172;2023-03-20T15:20:18;11.00;1.00
20182;DHT22;10250;50.756;6.172;2023-03-20T15:22:19;11.00;1.00
20182;DHT22;10250;50.756;6.172;2023-03-20T15:24:26;11.10;1.00
20182;DHT22;10250;50.756;6.172;2023-03-20T15:26:28;11.10;1.00
20182;DHT22;10250;50.756;6.172;2023-03-20T15:28:31;11.10;1.00
20182;DHT22;10250;50.756;6.172;2023-03-20T15:30:35;11.10;1.00
20182;DHT22;10250;50.756;6.172;2023-03-20T15:32:36;11.10;1.00
20182;DHT22;10250;50.756;6.172;2023-03-20T15:34:38;11.10;1.00
20182;DHT22;10250;50.756;6.172;2023-03-20T15:36:40;11.20;1.00
20182;DHT22;10250;50.756;6.172;2023-03-20T15:38:40;11.10;1.00
20182;DHT22;10250;50.756;6.172;2023-03-20T15:40:43;11.20;1.00
20182;DHT22;10250;50.756;6.172;2023-03-20T15:42:58;11.20;1.00
20182;DHT22;10250;50.756;6.172;2023-03-20T15:44:58;11.20;1.00
20182;DHT22;10250;50.756;6.172;2023-03-20T15:47:03;11.20;1.00
20182;DHT22;10250;50.756;6.172;2023-03-20T15:49:06;11.10;1.00
20182;DHT22;10250;50.756;6.172;2023-03-20T15:51:09;11.20;1.00